sensor_id;sensor_type;location;lat;lon;timestamp;P1;durP1;ratioP1;P2;durP2;ratioP2
78430;SDS011;67727;50.236;22.452;2023-03-14T00:01:16;7.20;;;4.60;;
78430;SDS011;67727;50.236;22.452;2023-03-14T00:03:46;7.70;;;4.60;;
78430;SDS011;67727;50.236;22.452;2023-03-14T00:06:15;6.70;;;4.70;;
78430;SDS011;67727;50.236;22.452;2023-03-14T00:11:16;5.90;;;4.50;;
78430;SDS011;67727;50.236;22.452;2023-03-14T00:13:49;5.70;;;4.20;;
78430;SDS011;67727;50.236;22.452;2023-03-14T00:16:17;8.20;;;4.20;;
78430;SDS011;67727;50.236;22.452;2023-03-14T00:18:45;6.70;;;4.30;;
78430;SDS011;67727;50.236;22.452;2023-03-14T00:21:12;8.60;;;4.60;;
78430;SDS011;67727;50.236;22.452;2023-03-14T00:23:40;6.50;;;3.80;;
78430;SDS011;67727;50.236;22.452;2023-03-14T00:26:11;11.00;;;4.90;;
78430;SDS011;67727;50.236;22.452;2023-03-14T00:28:41;7.90;;;5.00;;
78430;SDS011;67727;50.236;22.452;2023-03-14T00:31:09;6.90;;;4.10;;
78430;SDS011;67727;50.236;22.452;2023-03-14T00:33:38;7.50;;;4.20;;
78430;SDS011;67727;50.236;22.452;2023-03-14T00:36:06;8.20;;;5.00;;
78430;SDS011;67727;50.236;22.452;2023-03-14T00:38:36;8.80;;;5.00;;
78430;SDS011;67727;50.236;22.452;2023-03-14T00:41:08;8.70;;;4.70;;
78430;SDS011;67727;50.236;22.452;2023-03-14T00:43:39;7.00;;;4.40;;
78430;SDS011;67727;50.236;22.452;2023-03-14T00:46:07;6.40;;;4.50;;
78430;SDS011;67727;50.236;22.452;2023-03-14T00:48:34;7.90;;;4.30;;
78430;SDS011;67727;50.236;22.452;2023-03-14T00:51:03;5.60;;;4.00;;
78430;SDS011;67727;50.236;22.452;2023-03-14T00:53:32;7.60;;;4.40;;
78430;SDS011;67727;50.236;22.452;2023-03-14T00:56:03;8.90;;;4.20;;
78430;SDS011;67727;50.236;22.452;2023-03-14T00:58:35;8.10;;;4.70;;
78430;SDS011;67727;50.236;22.452;2023-03-14T01:01:09;7.60;;;4.80;;
78430;SDS011;67727;50.236;22.452;2023-03-14T01:03:40;7.50;;;4.20;;
78430;SDS011;67727;50.236;22.452;2023-03-14T01:06:09;6.30;;;4.60;;
78430;SDS011;67727;50.236;22.452;2023-03-14T01:08:38;6.60;;;4.80;;
78430;SDS011;67727;50.236;22.452;2023-03-14T01:11:06;6.00;;;4.20;;
78430;SDS011;67727;50.236;22.452;2023-03-14T01:13:38;4.80;;;3.90;;
78430;SDS011;67727;50.236;22.452;2023-03-14T01:16:06;6.20;;;4.10;;
78430;SDS011;67727;50.236;22.452;2023-03-14T01:18:35;8.40;;;5.10;;
78430;SDS011;67727;50.236;22.452;2023-03-14T01:23:35;6.30;;;4.20;;
78430;SDS011;67727;50.236;22.452;2023-03-14T01:26:02;6.00;;;5.10;;
78430;SDS011;67727;50.236;22.452;2023-03-14T01:28:29;9.00;;;5.10;;
78430;SDS011;67727;50.236;22.452;2023-03-14T01:31:01;6.80;;;4.70;;
78430;SDS011;67727;50.236;22.452;2023-03-14T01:33:30;8.30;;;4.60;;
78430;SDS011;67727;50.236;22.452;2023-03-14T01:35:57;7.40;;;4.60;;
78430;SDS011;67727;50.236;22.452;2023-03-14T01:38:25;11.60;;;5.10;;
78430;SDS011;67727;50.236;22.452;2023-03-14T01:40:52;4.40;;;3.60;;
78430;SDS011;67727;50.236;22.452;2023-03-14T01:43:19;5.50;;;4.00;;
78430;SDS011;67727;50.236;22.452;2023-03-14T01:48:34;6.10;;;4.00;;
78430;SDS011;67727;50.236;22.452;2023-03-14T01:51:04;5.80;;;4.10;;
78430;SDS011;67727;50.236;22.452;2023-03-14T01:53:35;6.40;;;3.70;;
78430;SDS011;67727;50.236;22.452;2023-03-14T01:56:05;7.00;;;4.50;;
78430;SDS011;67727;50.236;22.452;2023-03-14T01:58:33;5.60;;;4.30;;
78430;SDS011;67727;50.236;22.452;2023-03-14T02:01:01;5.30;;;4.00;;
78430;SDS011;67727;50.236;22.452;2023-03-14T02:03:30;6.30;;;4.20;;
78430;SDS011;67727;50.236;22.452;2023-03-14T02:06:04;7.70;;;3.80;;
78430;SDS011;67727;50.236;22.452;2023-03-14T02:08:35;7.70;;;4.30;;
78430;SDS011;67727;50.236;22.452;2023-03-14T02:11:03;5.00;;;3.70;;
78430;SDS011;67727;50.236;22.452;2023-03-14T02:13:31;5.60;;;3.90;;
78430;SDS011;67727;50.236;22.452;2023-03-14T02:15:58;5.90;;;3.70;;
78430;SDS011;67727;50.236;22.452;2023-03-14T02:18:25;5.20;;;3.70;;
78430;SDS011;67727;50.236;22.452;2023-03-14T02:26:35;5.00;;;3.50;;
78430;SDS011;67727;50.236;22.452;2023-03-14T02:29:07;5.60;;;3.30;;
78430;SDS011;67727;50.236;22.452;2023-03-14T02:31:34;4.30;;;3.30;;
78430;SDS011;67727;50.236;22.452;2023-03-14T02:34:02;4.10;;;2.90;;
78430;SDS011;67727;50.236;22.452;2023-03-14T02:36:30;5.00;;;3.80;;
78430;SDS011;67727;50.236;22.452;2023-03-14T02:41:48;5.10;;;3.40;;
78430;SDS011;67727;50.236;22.452;2023-03-14T02:46:42;4.80;;;3.20;;
78430;SDS011;67727;50.236;22.452;2023-03-14T02:49:13;5.70;;;3.40;;
78430;SDS011;67727;50.236;22.452;2023-03-14T02:51:41;5.60;;;3.20;;
78430;SDS011;67727;50.236;22.452;2023-03-14T02:54:11;4.80;;;3.80;;
78430;SDS011;67727;50.236;22.452;2023-03-14T02:56:41;4.50;;;3.70;;
78430;SDS011;67727;50.236;22.452;2023-03-14T02:59:08;6.00;;;3.50;;
78430;SDS011;67727;50.236;22.452;2023-03-14T03:01:35;4.30;;;3.30;;
78430;SDS011;67727;50.236;22.452;2023-03-14T03:04:02;4.30;;;3.30;;
78430;SDS011;67727;50.236;22.452;2023-03-14T03:06:29;5.60;;;2.90;;
78430;SDS011;67727;50.236;22.452;2023-03-14T03:08:56;5.80;;;3.30;;
78430;SDS011;67727;50.236;22.452;2023-03-14T03:11:24;6.30;;;3.50;;
78430;SDS011;67727;50.236;22.452;2023-03-14T03:13:51;5.00;;;3.30;;
78430;SDS011;67727;50.236;22.452;2023-03-14T03:16:18;5.10;;;3.40;;
78430;SDS011;67727;50.236;22.452;2023-03-14T03:18:45;4.80;;;3.40;;
78430;SDS011;67727;50.236;22.452;2023-03-14T03:21:12;5.90;;;3.70;;
78430;SDS011;67727;50.236;22.452;2023-03-14T03:23:39;4.30;;;3.00;;
78430;SDS011;67727;50.236;22.452;2023-03-14T03:26:06;5.70;;;3.70;;
78430;SDS011;67727;50.236;22.452;2023-03-14T03:28:35;5.60;;;3.70;;
78430;SDS011;67727;50.236;22.452;2023-03-14T03:31:09;5.40;;;2.70;;
78430;SDS011;67727;50.236;22.452;2023-03-14T03:33:37;4.00;;;3.00;;
78430;SDS011;67727;50.236;22.452;2023-03-14T03:36:05;4.00;;;2.70;;
78430;SDS011;67727;50.236;22.452;2023-03-14T03:38:32;5.90;;;3.80;;
78430;SDS011;67727;50.236;22.452;2023-03-14T03:41:02;6.20;;;3.10;;
78430;SDS011;67727;50.236;22.452;2023-03-14T03:43:31;5.00;;;2.90;;
78430;SDS011;67727;50.236;22.452;2023-03-14T03:45:59;4.10;;;3.40;;
78430;SDS011;67727;50.236;22.452;2023-03-14T03:48:29;5.10;;;2.90;;
78430;SDS011;67727;50.236;22.452;2023-03-14T03:50:56;4.20;;;3.30;;
78430;SDS011;67727;50.236;22.452;2023-03-14T03:53:24;4.40;;;3.00;;
78430;SDS011;67727;50.236;22.452;2023-03-14T03:55:51;5.30;;;3.40;;
78430;SDS011;67727;50.236;22.452;2023-03-14T03:58:18;4.00;;;2.80;;
78430;SDS011;67727;50.236;22.452;2023-03-14T04:00:45;5.10;;;3.50;;
78430;SDS011;67727;50.236;22.452;2023-03-14T04:03:12;5.40;;;3.40;;
78430;SDS011;67727;50.236;22.452;2023-03-14T04:05:39;5.10;;;3.00;;
78430;SDS011;67727;50.236;22.452;2023-03-14T04:08:06;4.50;;;3.30;;
78430;SDS011;67727;50.236;22.452;2023-03-14T04:10:34;5.40;;;3.40;;
78430;SDS011;67727;50.236;22.452;2023-03-14T04:13:01;4.70;;;3.40;;
78430;SDS011;67727;50.236;22.452;2023-03-14T04:15:28;4.50;;;3.00;;
78430;SDS011;67727;50.236;22.452;2023-03-14T04:17:57;4.40;;;3.50;;
78430;SDS011;67727;50.236;22.452;2023-03-14T04:20:25;5.10;;;3.20;;
78430;SDS011;67727;50.236;22.452;2023-03-14T04:22:52;4.90;;;3.40;;
78430;SDS011;67727;50.236;22.452;2023-03-14T04:25:19;5.10;;;2.90;;
78430;SDS011;67727;50.236;22.452;2023-03-14T04:27:46;5.00;;;3.40;;
78430;SDS011;67727;50.236;22.452;2023-03-14T04:30:14;4.70;;;3.40;;
78430;SDS011;67727;50.236;22.452;2023-03-14T04:32:41;5.50;;;3.40;;
78430;SDS011;67727;50.236;22.452;2023-03-14T04:35:08;5.20;;;3.00;;
78430;SDS011;67727;50.236;22.452;2023-03-14T04:37:35;4.20;;;2.60;;
78430;SDS011;67727;50.236;22.452;2023-03-14T04:40:03;5.00;;;2.80;;
78430;SDS011;67727;50.236;22.452;2023-03-14T04:42:32;5.40;;;3.20;;
78430;SDS011;67727;50.236;22.452;2023-03-14T04:44:59;4.60;;;3.20;;
78430;SDS011;67727;50.236;22.452;2023-03-14T04:47:27;5.10;;;3.00;;
78430;SDS011;67727;50.236;22.452;2023-03-14T04:49:54;4.20;;;2.90;;
78430;SDS011;67727;50.236;22.452;2023-03-14T04:52:21;3.50;;;2.90;;
78430;SDS011;67727;50.236;22.452;2023-03-14T04:54:48;6.30;;;3.40;;
78430;SDS011;67727;50.236;22.452;2023-03-14T04:57:15;5.70;;;2.90;;
78430;SDS011;67727;50.236;22.452;2023-03-14T04:59:43;4.80;;;3.50;;
78430;SDS011;67727;50.236;22.452;2023-03-14T05:02:10;5.20;;;3.60;;
78430;SDS011;67727;50.236;22.452;2023-03-14T05:04:37;4.60;;;2.50;;
78430;SDS011;67727;50.236;22.452;2023-03-14T05:07:04;6.50;;;3.30;;
78430;SDS011;67727;50.236;22.452;2023-03-14T05:09:31;4.00;;;2.90;;
78430;SDS011;67727;50.236;22.452;2023-03-14T05:14:26;3.30;;;2.30;;
78430;SDS011;67727;50.236;22.452;2023-03-14T05:16:53;4.20;;;3.00;;
78430;SDS011;67727;50.236;22.452;2023-03-14T05:19:20;5.00;;;3.60;;
78430;SDS011;67727;50.236;22.452;2023-03-14T05:21:47;4.60;;;3.40;;
78430;SDS011;67727;50.236;22.452;2023-03-14T05:24:14;6.50;;;3.80;;
78430;SDS011;67727;50.236;22.452;2023-03-14T05:26:41;5.80;;;3.50;;
78430;SDS011;67727;50.236;22.452;2023-03-14T05:29:08;5.30;;;3.40;;
78430;SDS011;67727;50.236;22.452;2023-03-14T05:31:35;7.10;;;3.50;;
78430;SDS011;67727;50.236;22.452;2023-03-14T05:34:02;4.30;;;3.30;;
78430;SDS011;67727;50.236;22.452;2023-03-14T05:36:29;4.60;;;3.50;;
78430;SDS011;67727;50.236;22.452;2023-03-14T05:38:57;5.10;;;3.40;;
78430;SDS011;67727;50.236;22.452;2023-03-14T05:41:24;4.60;;;3.60;;
78430;SDS011;67727;50.236;22.452;2023-03-14T05:43:51;5.20;;;3.30;;
78430;SDS011;67727;50.236;22.452;2023-03-14T05:46:18;4.20;;;2.90;;
78430;SDS011;67727;50.236;22.452;2023-03-14T05:48:45;7.00;;;3.10;;
78430;SDS011;67727;50.236;22.452;2023-03-14T05:51:12;7.80;;;3.10;;
78430;SDS011;67727;50.236;22.452;2023-03-14T05:53:39;4.90;;;3.40;;
78430;SDS011;67727;50.236;22.452;2023-03-14T05:56:06;4.50;;;3.10;;
78430;SDS011;67727;50.236;22.452;2023-03-14T05:58:34;4.80;;;3.10;;
78430;SDS011;67727;50.236;22.452;2023-03-14T06:01:02;5.20;;;2.80;;
78430;SDS011;67727;50.236;22.452;2023-03-14T06:03:30;5.40;;;3.30;;
78430;SDS011;67727;50.236;22.452;2023-03-14T06:05:57;5.10;;;3.40;;
78430;SDS011;67727;50.236;22.452;2023-03-14T06:08:24;4.40;;;3.00;;
78430;SDS011;67727;50.236;22.452;2023-03-14T06:10:51;5.10;;;3.00;;
78430;SDS011;67727;50.236;22.452;2023-03-14T06:13:19;3.60;;;3.00;;
78430;SDS011;67727;50.236;22.452;2023-03-14T06:15:47;7.30;;;3.30;;
78430;SDS011;67727;50.236;22.452;2023-03-14T06:18:14;5.90;;;3.40;;
78430;SDS011;67727;50.236;22.452;2023-03-14T06:20:41;6.40;;;3.30;;
78430;SDS011;67727;50.236;22.452;2023-03-14T06:23:08;5.70;;;3.00;;
78430;SDS011;67727;50.236;22.452;2023-03-14T06:25:36;8.90;;;4.10;;
78430;SDS011;67727;50.236;22.452;2023-03-14T06:28:03;5.20;;;3.30;;
78430;SDS011;67727;50.236;22.452;2023-03-14T06:30:31;4.30;;;3.50;;
78430;SDS011;67727;50.236;22.452;2023-03-14T06:32:58;4.20;;;3.30;;
78430;SDS011;67727;50.236;22.452;2023-03-14T06:35:25;3.70;;;3.30;;
78430;SDS011;67727;50.236;22.452;2023-03-14T06:37:52;5.70;;;3.40;;
78430;SDS011;67727;50.236;22.452;2023-03-14T06:40:19;5.50;;;3.30;;
78430;SDS011;67727;50.236;22.452;2023-03-14T06:42:46;5.60;;;3.50;;
78430;SDS011;67727;50.236;22.452;2023-03-14T06:45:14;5.40;;;3.50;;
78430;SDS011;67727;50.236;22.452;2023-03-14T06:47:41;6.30;;;3.80;;
78430;SDS011;67727;50.236;22.452;2023-03-14T06:52:36;8.90;;;5.20;;
78430;SDS011;67727;50.236;22.452;2023-03-14T06:55:04;4.70;;;3.30;;
78430;SDS011;67727;50.236;22.452;2023-03-14T06:57:31;7.10;;;3.30;;
78430;SDS011;67727;50.236;22.452;2023-03-14T06:59:58;4.40;;;3.20;;
78430;SDS011;67727;50.236;22.452;2023-03-14T07:02:25;6.40;;;3.60;;
78430;SDS011;67727;50.236;22.452;2023-03-14T07:04:52;7.50;;;3.30;;
78430;SDS011;67727;50.236;22.452;2023-03-14T07:07:19;4.00;;;3.10;;
78430;SDS011;67727;50.236;22.452;2023-03-14T07:09:46;7.10;;;3.40;;
78430;SDS011;67727;50.236;22.452;2023-03-14T07:12:13;4.40;;;3.20;;
78430;SDS011;67727;50.236;22.452;2023-03-14T07:14:40;5.10;;;3.10;;
78430;SDS011;67727;50.236;22.452;2023-03-14T07:17:07;3.80;;;3.30;;
78430;SDS011;67727;50.236;22.452;2023-03-14T07:19:34;3.70;;;2.90;;
78430;SDS011;67727;50.236;22.452;2023-03-14T07:22:01;6.70;;;3.20;;
78430;SDS011;67727;50.236;22.452;2023-03-14T07:24:28;6.80;;;3.20;;
78430;SDS011;67727;50.236;22.452;2023-03-14T07:26:56;6.90;;;2.90;;
78430;SDS011;67727;50.236;22.452;2023-03-14T07:29:23;5.30;;;3.20;;
78430;SDS011;67727;50.236;22.452;2023-03-14T07:31:50;5.30;;;3.20;;
78430;SDS011;67727;50.236;22.452;2023-03-14T07:34:17;4.50;;;3.10;;
78430;SDS011;67727;50.236;22.452;2023-03-14T07:36:45;4.40;;;2.90;;
78430;SDS011;67727;50.236;22.452;2023-03-14T07:39:13;5.40;;;2.70;;
78430;SDS011;67727;50.236;22.452;2023-03-14T07:41:40;5.20;;;3.30;;
78430;SDS011;67727;50.236;22.452;2023-03-14T07:44:07;3.70;;;2.90;;
78430;SDS011;67727;50.236;22.452;2023-03-14T07:46:34;5.20;;;3.20;;
78430;SDS011;67727;50.236;22.452;2023-03-14T07:49:01;4.10;;;2.90;;
78430;SDS011;67727;50.236;22.452;2023-03-14T07:51:28;4.80;;;3.20;;
78430;SDS011;67727;50.236;22.452;2023-03-14T07:53:55;4.30;;;3.10;;
78430;SDS011;67727;50.236;22.452;2023-03-14T07:56:22;4.70;;;3.00;;
78430;SDS011;67727;50.236;22.452;2023-03-14T07:58:49;4.40;;;3.30;;
78430;SDS011;67727;50.236;22.452;2023-03-14T08:01:16;4.50;;;2.70;;
78430;SDS011;67727;50.236;22.452;2023-03-14T08:03:44;5.10;;;3.10;;
78430;SDS011;67727;50.236;22.452;2023-03-14T08:06:11;5.30;;;3.00;;
78430;SDS011;67727;50.236;22.452;2023-03-14T08:08:38;4.70;;;3.10;;
78430;SDS011;67727;50.236;22.452;2023-03-14T08:11:05;4.10;;;2.60;;
78430;SDS011;67727;50.236;22.452;2023-03-14T08:13:35;6.90;;;2.90;;
78430;SDS011;67727;50.236;22.452;2023-03-14T08:16:06;4.40;;;3.00;;
78430;SDS011;67727;50.236;22.452;2023-03-14T08:18:33;4.80;;;2.80;;
78430;SDS011;67727;50.236;22.452;2023-03-14T08:21:00;4.80;;;3.00;;
78430;SDS011;67727;50.236;22.452;2023-03-14T08:23:27;6.00;;;2.80;;
78430;SDS011;67727;50.236;22.452;2023-03-14T08:25:54;5.10;;;3.10;;
78430;SDS011;67727;50.236;22.452;2023-03-14T08:28:22;5.60;;;3.10;;
78430;SDS011;67727;50.236;22.452;2023-03-14T08:30:49;5.40;;;2.80;;
78430;SDS011;67727;50.236;22.452;2023-03-14T08:33:16;8.40;;;4.60;;
78430;SDS011;67727;50.236;22.452;2023-03-14T08:35:43;6.10;;;2.90;;
78430;SDS011;67727;50.236;22.452;2023-03-14T08:38:10;6.00;;;3.30;;
78430;SDS011;67727;50.236;22.452;2023-03-14T08:40:38;6.70;;;3.10;;
78430;SDS011;67727;50.236;22.452;2023-03-14T08:43:05;6.70;;;3.00;;
78430;SDS011;67727;50.236;22.452;2023-03-14T08:45:32;4.50;;;2.50;;
78430;SDS011;67727;50.236;22.452;2023-03-14T08:47:59;5.70;;;3.00;;
78430;SDS011;67727;50.236;22.452;2023-03-14T08:50:26;5.60;;;3.20;;
78430;SDS011;67727;50.236;22.452;2023-03-14T08:52:53;6.00;;;3.60;;
78430;SDS011;67727;50.236;22.452;2023-03-14T08:55:20;6.10;;;3.10;;
78430;SDS011;67727;50.236;22.452;2023-03-14T08:57:47;6.80;;;3.40;;
78430;SDS011;67727;50.236;22.452;2023-03-14T09:00:15;5.90;;;2.90;;
78430;SDS011;67727;50.236;22.452;2023-03-14T09:02:43;4.30;;;2.90;;
78430;SDS011;67727;50.236;22.452;2023-03-14T09:05:10;5.00;;;3.10;;
78430;SDS011;67727;50.236;22.452;2023-03-14T09:07:38;6.60;;;2.90;;
78430;SDS011;67727;50.236;22.452;2023-03-14T09:10:06;6.30;;;3.00;;
78430;SDS011;67727;50.236;22.452;2023-03-14T09:12:35;4.20;;;2.60;;
78430;SDS011;67727;50.236;22.452;2023-03-14T09:15:02;4.60;;;2.90;;
78430;SDS011;67727;50.236;22.452;2023-03-14T09:17:30;5.40;;;2.90;;
78430;SDS011;67727;50.236;22.452;2023-03-14T09:19:57;4.30;;;2.70;;
78430;SDS011;67727;50.236;22.452;2023-03-14T09:22:24;5.80;;;2.60;;
78430;SDS011;67727;50.236;22.452;2023-03-14T09:24:51;6.80;;;3.10;;
78430;SDS011;67727;50.236;22.452;2023-03-14T09:27:18;5.90;;;2.60;;
78430;SDS011;67727;50.236;22.452;2023-03-14T09:29:45;3.70;;;2.40;;
78430;SDS011;67727;50.236;22.452;2023-03-14T09:32:12;4.60;;;2.70;;
78430;SDS011;67727;50.236;22.452;2023-03-14T09:34:39;3.90;;;2.40;;
78430;SDS011;67727;50.236;22.452;2023-03-14T09:37:06;4.40;;;2.60;;
78430;SDS011;67727;50.236;22.452;2023-03-14T09:39:34;4.40;;;2.60;;
78430;SDS011;67727;50.236;22.452;2023-03-14T09:42:02;4.60;;;2.80;;
78430;SDS011;67727;50.236;22.452;2023-03-14T09:44:33;5.70;;;3.30;;
78430;SDS011;67727;50.236;22.452;2023-03-14T09:47:09;6.30;;;2.80;;
78430;SDS011;67727;50.236;22.452;2023-03-14T09:49:40;4.90;;;2.80;;
78430;SDS011;67727;50.236;22.452;2023-03-14T09:54:49;4.70;;;2.60;;
78430;SDS011;67727;50.236;22.452;2023-03-14T09:57:25;3.80;;;2.50;;
78430;SDS011;67727;50.236;22.452;2023-03-14T09:59:54;3.60;;;2.80;;
78430;SDS011;67727;50.236;22.452;2023-03-14T10:02:24;8.70;;;4.00;;
78430;SDS011;67727;50.236;22.452;2023-03-14T10:04:55;6.90;;;4.30;;
78430;SDS011;67727;50.236;22.452;2023-03-14T10:07:28;5.10;;;3.00;;
78430;SDS011;67727;50.236;22.452;2023-03-14T10:09:57;7.60;;;3.90;;
78430;SDS011;67727;50.236;22.452;2023-03-14T10:12:31;6.30;;;2.60;;
78430;SDS011;67727;50.236;22.452;2023-03-14T10:15:04;7.60;;;4.00;;
78430;SDS011;67727;50.236;22.452;2023-03-14T10:17:43;6.40;;;3.00;;
78430;SDS011;67727;50.236;22.452;2023-03-14T10:20:26;8.00;;;2.90;;
78430;SDS011;67727;50.236;22.452;2023-03-14T10:23:03;4.90;;;2.90;;
78430;SDS011;67727;50.236;22.452;2023-03-14T10:25:34;5.90;;;3.20;;
78430;SDS011;67727;50.236;22.452;2023-03-14T10:28:03;5.40;;;3.10;;
78430;SDS011;67727;50.236;22.452;2023-03-14T10:30:44;6.40;;;2.90;;
78430;SDS011;67727;50.236;22.452;2023-03-14T10:35:54;5.50;;;2.80;;
78430;SDS011;67727;50.236;22.452;2023-03-14T10:38:25;6.30;;;2.80;;
78430;SDS011;67727;50.236;22.452;2023-03-14T10:40:55;5.60;;;3.10;;
78430;SDS011;67727;50.236;22.452;2023-03-14T10:43:33;5.10;;;2.70;;
78430;SDS011;67727;50.236;22.452;2023-03-14T10:46:06;5.90;;;2.80;;
78430;SDS011;67727;50.236;22.452;2023-03-14T10:48:36;4.60;;;2.80;;
78430;SDS011;67727;50.236;22.452;2023-03-14T10:53:44;4.80;;;3.00;;
78430;SDS011;67727;50.236;22.452;2023-03-14T10:56:20;6.90;;;3.60;;
78430;SDS011;67727;50.236;22.452;2023-03-14T10:58:52;8.20;;;5.60;;
78430;SDS011;67727;50.236;22.452;2023-03-14T11:07:26;5.90;;;3.60;;
78430;SDS011;67727;50.236;22.452;2023-03-14T11:09:41;6.40;;;4.40;;
78430;SDS011;67727;50.236;22.452;2023-03-14T11:15:13;6.70;;;3.10;;
78430;SDS011;67727;50.236;22.452;2023-03-14T11:23:02;4.20;;;3.10;;
78430;SDS011;67727;50.236;22.452;2023-03-14T11:26:24;2.60;;;2.40;;
78430;SDS011;67727;50.236;22.452;2023-03-14T11:28:49;8.40;;;3.40;;
78430;SDS011;67727;50.236;22.452;2023-03-14T11:31:23;4.80;;;3.00;;
78430;SDS011;67727;50.236;22.452;2023-03-14T11:36:41;5.00;;;3.10;;
78430;SDS011;67727;50.236;22.452;2023-03-14T11:39:16;6.70;;;2.90;;
78430;SDS011;67727;50.236;22.452;2023-03-14T11:41:49;5.10;;;3.10;;
78430;SDS011;67727;50.236;22.452;2023-03-14T11:44:25;4.60;;;3.10;;
78430;SDS011;67727;50.236;22.452;2023-03-14T11:46:59;5.70;;;3.50;;
78430;SDS011;67727;50.236;22.452;2023-03-14T11:54:53;7.40;;;4.20;;
78430;SDS011;67727;50.236;22.452;2023-03-14T11:57:29;6.80;;;4.20;;
78430;SDS011;67727;50.236;22.452;2023-03-14T12:00:12;4.80;;;3.40;;
78430;SDS011;67727;50.236;22.452;2023-03-14T12:14:20;9.20;;;4.20;;
78430;SDS011;67727;50.236;22.452;2023-03-14T12:16:48;5.80;;;3.60;;
78430;SDS011;67727;50.236;22.452;2023-03-14T12:24:48;5.00;;;3.40;;
78430;SDS011;67727;50.236;22.452;2023-03-14T12:35:39;11.50;;;5.20;;
78430;SDS011;67727;50.236;22.452;2023-03-14T12:38:09;8.80;;;4.20;;
78430;SDS011;67727;50.236;22.452;2023-03-14T12:43:29;8.90;;;4.30;;
78430;SDS011;67727;50.236;22.452;2023-03-14T12:46:08;10.30;;;5.70;;
78430;SDS011;67727;50.236;22.452;2023-03-14T12:48:37;6.00;;;3.70;;
78430;SDS011;67727;50.236;22.452;2023-03-14T12:51:18;7.90;;;4.20;;
78430;SDS011;67727;50.236;22.452;2023-03-14T12:53:55;8.20;;;4.50;;
78430;SDS011;67727;50.236;22.452;2023-03-14T12:56:35;4.90;;;3.30;;
78430;SDS011;67727;50.236;22.452;2023-03-14T12:59:28;7.30;;;4.50;;
78430;SDS011;67727;50.236;22.452;2023-03-14T13:02:22;6.50;;;3.60;;
78430;SDS011;67727;50.236;22.452;2023-03-14T13:05:05;6.80;;;3.50;;
78430;SDS011;67727;50.236;22.452;2023-03-14T13:10:27;6.40;;;3.30;;
78430;SDS011;67727;50.236;22.452;2023-03-14T13:15:49;8.00;;;5.70;;
78430;SDS011;67727;50.236;22.452;2023-03-14T13:18:29;6.90;;;4.10;;
78430;SDS011;67727;50.236;22.452;2023-03-14T13:24:01;6.70;;;4.70;;
78430;SDS011;67727;50.236;22.452;2023-03-14T13:26:32;7.00;;;3.20;;
78430;SDS011;67727;50.236;22.452;2023-03-14T13:32:00;7.40;;;4.20;;
78430;SDS011;67727;50.236;22.452;2023-03-14T13:34:30;6.10;;;3.50;;
78430;SDS011;67727;50.236;22.452;2023-03-14T13:36:59;5.50;;;3.40;;
78430;SDS011;67727;50.236;22.452;2023-03-14T13:39:27;7.50;;;3.90;;
78430;SDS011;67727;50.236;22.452;2023-03-14T13:41:59;10.10;;;3.70;;
78430;SDS011;67727;50.236;22.452;2023-03-14T13:44:31;6.40;;;3.50;;
78430;SDS011;67727;50.236;22.452;2023-03-14T13:47:02;9.10;;;3.30;;
78430;SDS011;67727;50.236;22.452;2023-03-14T13:49:31;5.30;;;3.40;;
78430;SDS011;67727;50.236;22.452;2023-03-14T13:52:02;6.20;;;3.70;;
78430;SDS011;67727;50.236;22.452;2023-03-14T13:54:30;8.10;;;3.50;;
78430;SDS011;67727;50.236;22.452;2023-03-14T13:57:01;5.70;;;4.10;;
78430;SDS011;67727;50.236;22.452;2023-03-14T13:59:31;6.10;;;3.40;;
78430;SDS011;67727;50.236;22.452;2023-03-14T14:02:00;7.40;;;4.30;;
78430;SDS011;67727;50.236;22.452;2023-03-14T14:04:32;7.70;;;3.70;;
78430;SDS011;67727;50.236;22.452;2023-03-14T14:07:06;10.30;;;3.50;;
78430;SDS011;67727;50.236;22.452;2023-03-14T14:09:39;6.40;;;3.80;;
78430;SDS011;67727;50.236;22.452;2023-03-14T14:14:46;6.10;;;3.60;;
78430;SDS011;67727;50.236;22.452;2023-03-14T14:17:38;5.30;;;3.60;;
78430;SDS011;67727;50.236;22.452;2023-03-14T14:20:14;10.70;;;4.80;;
78430;SDS011;67727;50.236;22.452;2023-03-14T14:22:45;6.70;;;4.20;;
78430;SDS011;67727;50.236;22.452;2023-03-14T14:25:13;8.80;;;4.40;;
78430;SDS011;67727;50.236;22.452;2023-03-14T14:27:42;8.00;;;4.00;;
78430;SDS011;67727;50.236;22.452;2023-03-14T14:32:47;7.30;;;3.90;;
78430;SDS011;67727;50.236;22.452;2023-03-14T14:37:59;12.50;;;6.20;;
78430;SDS011;67727;50.236;22.452;2023-03-14T14:40:28;5.10;;;3.80;;
78430;SDS011;67727;50.236;22.452;2023-03-14T14:43:03;6.20;;;4.20;;
78430;SDS011;67727;50.236;22.452;2023-03-14T14:45:33;6.60;;;4.30;;
78430;SDS011;67727;50.236;22.452;2023-03-14T14:50:29;6.80;;;4.70;;
78430;SDS011;67727;50.236;22.452;2023-03-14T14:53:25;9.70;;;4.80;;
78430;SDS011;67727;50.236;22.452;2023-03-14T14:55:55;6.90;;;4.40;;
78430;SDS011;67727;50.236;22.452;2023-03-14T14:58:34;6.10;;;4.00;;
78430;SDS011;67727;50.236;22.452;2023-03-14T15:01:11;9.80;;;4.80;;
78430;SDS011;67727;50.236;22.452;2023-03-14T15:03:44;6.30;;;4.50;;
78430;SDS011;67727;50.236;22.452;2023-03-14T15:06:13;7.90;;;4.20;;
78430;SDS011;67727;50.236;22.452;2023-03-14T15:08:42;7.40;;;4.50;;
78430;SDS011;67727;50.236;22.452;2023-03-14T15:11:19;11.30;;;5.40;;
78430;SDS011;67727;50.236;22.452;2023-03-14T15:13:51;7.50;;;4.60;;
78430;SDS011;67727;50.236;22.452;2023-03-14T15:16:23;9.20;;;5.20;;
78430;SDS011;67727;50.236;22.452;2023-03-14T15:18:55;8.70;;;5.20;;
78430;SDS011;67727;50.236;22.452;2023-03-14T15:21:24;9.80;;;5.50;;
78430;SDS011;67727;50.236;22.452;2023-03-14T15:23:53;7.90;;;5.00;;
78430;SDS011;67727;50.236;22.452;2023-03-14T15:26:22;7.50;;;4.20;;
78430;SDS011;67727;50.236;22.452;2023-03-14T15:28:52;9.90;;;5.80;;
78430;SDS011;67727;50.236;22.452;2023-03-14T15:31:20;9.40;;;5.20;;
78430;SDS011;67727;50.236;22.452;2023-03-14T15:33:50;8.20;;;4.80;;
78430;SDS011;67727;50.236;22.452;2023-03-14T15:36:22;9.60;;;4.80;;
78430;SDS011;67727;50.236;22.452;2023-03-14T15:38:52;11.70;;;5.20;;
78430;SDS011;67727;50.236;22.452;2023-03-14T15:41:20;6.50;;;4.00;;
78430;SDS011;67727;50.236;22.452;2023-03-14T15:43:48;8.40;;;4.40;;
78430;SDS011;67727;50.236;22.452;2023-03-14T15:46:15;7.80;;;4.70;;
78430;SDS011;67727;50.236;22.452;2023-03-14T15:48:46;8.80;;;5.10;;
78430;SDS011;67727;50.236;22.452;2023-03-14T15:51:14;7.80;;;4.80;;
78430;SDS011;67727;50.236;22.452;2023-03-14T15:53:41;7.90;;;4.90;;
78430;SDS011;67727;50.236;22.452;2023-03-14T15:56:16;13.70;;;4.80;;
78430;SDS011;67727;50.236;22.452;2023-03-14T15:58:44;8.50;;;4.90;;
78430;SDS011;67727;50.236;22.452;2023-03-14T16:01:15;10.80;;;5.40;;
78430;SDS011;67727;50.236;22.452;2023-03-14T16:03:43;6.70;;;5.10;;
78430;SDS011;67727;50.236;22.452;2023-03-14T16:06:11;8.00;;;5.10;;
78430;SDS011;67727;50.236;22.452;2023-03-14T16:08:39;8.10;;;4.80;;
78430;SDS011;67727;50.236;22.452;2023-03-14T16:11:08;8.20;;;5.80;;
78430;SDS011;67727;50.236;22.452;2023-03-14T16:13:36;10.80;;;5.50;;
78430;SDS011;67727;50.236;22.452;2023-03-14T16:16:04;9.50;;;6.30;;
78430;SDS011;67727;50.236;22.452;2023-03-14T16:18:33;12.40;;;6.00;;
78430;SDS011;67727;50.236;22.452;2023-03-14T16:21:03;11.70;;;6.90;;
78430;SDS011;67727;50.236;22.452;2023-03-14T16:23:41;9.50;;;6.40;;
78430;SDS011;67727;50.236;22.452;2023-03-14T16:26:09;11.70;;;7.60;;
78430;SDS011;67727;50.236;22.452;2023-03-14T16:28:38;12.30;;;6.40;;
78430;SDS011;67727;50.236;22.452;2023-03-14T16:33:34;11.90;;;6.10;;